createdAt,value
2022-10-09T00:01:11.940Z,2.70
2022-10-09T00:03:41.521Z,2.60
2022-10-09T00:06:11.541Z,2.00
2022-10-09T00:08:43.560Z,2.20
2022-10-09T00:11:13.936Z,1.95
2022-10-09T00:13:41.885Z,2.50
2022-10-09T00:16:12.075Z,2.20
2022-10-09T00:18:41.253Z,1.87
2022-10-09T00:21:18.950Z,2.80
2022-10-09T00:23:48.430Z,2.10
2022-10-09T00:26:16.474Z,2.55
2022-10-09T00:28:44.291Z,2.40
2022-10-09T00:31:12.754Z,2.27
2022-10-09T00:33:40.856Z,2.10
2022-10-09T00:36:10.713Z,2.03
2022-10-09T00:38:38.788Z,2.17
2022-10-09T00:41:08.491Z,2.00
2022-10-09T00:43:44.146Z,2.20
2022-10-09T00:46:22.425Z,2.17
2022-10-09T00:48:56.649Z,3.50
2022-10-09T00:51:24.745Z,2.53
2022-10-09T00:53:52.701Z,3.13
2022-10-09T00:56:21.849Z,3.27
2022-10-09T00:58:54.802Z,2.80
2022-10-09T01:01:22.502Z,2.53
2022-10-09T01:03:50.177Z,2.43
2022-10-09T01:06:21.792Z,2.33
2022-10-09T01:08:57.638Z,2.60
2022-10-09T01:11:35.713Z,2.33
2022-10-09T01:14:15.130Z,1.90
2022-10-09T01:16:46.202Z,2.20
2022-10-09T01:19:28.572Z,2.13
2022-10-09T01:22:05.322Z,2.37
2022-10-09T01:24:37.819Z,2.37
2022-10-09T01:27:16.279Z,2.07
2022-10-09T01:29:47.310Z,3.20
2022-10-09T01:32:21.020Z,2.47
2022-10-09T01:34:50.595Z,2.20
2022-10-09T01:37:21.477Z,2.30
2022-10-09T01:39:50.289Z,2.53
2022-10-09T01:42:21.974Z,2.70
2022-10-09T01:44:49.621Z,2.17
2022-10-09T01:47:19.804Z,1.90
2022-10-09T01:49:54.628Z,2.80
2022-10-09T01:52:36.237Z,2.50
2022-10-09T01:55:26.602Z,1.77
2022-10-09T01:58:02.581Z,2.67
2022-10-09T02:00:34.695Z,1.87
2022-10-09T02:03:04.134Z,1.70
2022-10-09T02:05:32.971Z,1.90
2022-10-09T02:08:01.112Z,2.30
2022-10-09T02:10:29.179Z,2.17
2022-10-09T02:13:00.873Z,2.47
2022-10-09T02:15:35.553Z,1.70
2022-10-09T02:18:09.030Z,2.33
2022-10-09T02:20:42.004Z,1.97
2022-10-09T02:23:11.800Z,1.97
2022-10-09T02:25:39.586Z,2.17
2022-10-09T02:28:10.208Z,1.97
2022-10-09T02:30:48.105Z,2.30
2022-10-09T02:33:15.718Z,2.20
2022-10-09T02:35:44.093Z,2.23
2022-10-09T02:38:11.696Z,2.08
2022-10-09T02:40:39.287Z,1.70
2022-10-09T02:43:08.294Z,1.70
2022-10-09T02:45:35.830Z,1.60
2022-10-09T02:48:03.373Z,2.07
2022-10-09T02:50:30.917Z,2.00
2022-10-09T02:52:58.509Z,2.17
2022-10-09T02:55:26.011Z,1.60
2022-10-09T02:57:53.534Z,1.60
2022-10-09T03:00:22.470Z,2.17
2022-10-09T03:02:50.232Z,1.80
2022-10-09T03:05:18.253Z,1.50
2022-10-09T03:07:51.250Z,2.00
2022-10-09T03:10:19.351Z,2.10
2022-10-09T03:12:47.363Z,2.50
2022-10-09T03:15:15.103Z,2.20
2022-10-09T03:17:44.051Z,1.90
2022-10-09T03:20:11.632Z,1.87
2022-10-09T03:22:39.187Z,1.93
2022-10-09T03:25:08.006Z,2.50
2022-10-09T03:27:35.548Z,2.00
2022-10-09T03:30:03.080Z,1.77
2022-10-09T03:32:30.720Z,2.03
2022-10-09T03:34:59.650Z,1.93
2022-10-09T03:37:27.232Z,1.80
2022-10-09T03:39:55.169Z,1.90
2022-10-09T03:42:23.344Z,1.80
2022-10-09T03:44:50.977Z,1.73
2022-10-09T03:47:18.789Z,1.80
2022-10-09T03:49:46.419Z,2.00
2022-10-09T03:52:15.966Z,1.80
2022-10-09T03:54:43.539Z,1.80
2022-10-09T03:57:11.183Z,2.10
2022-10-09T03:59:38.814Z,2.00
2022-10-09T04:02:07.185Z,1.73
2022-10-09T04:04:35.246Z,1.90
2022-10-09T04:07:02.900Z,1.90
2022-10-09T04:09:31.811Z,1.40
2022-10-09T04:11:59.389Z,1.53
2022-10-09T04:14:27.558Z,1.57
2022-10-09T04:16:55.130Z,1.63
2022-10-09T04:19:22.704Z,1.40
2022-10-09T04:21:50.262Z,2.67
2022-10-09T04:24:18.705Z,2.07
2022-10-09T04:26:48.846Z,1.80
2022-10-09T04:29:16.414Z,2.30
2022-10-09T04:31:44.014Z,1.60
2022-10-09T04:34:11.650Z,1.57
2022-10-09T04:36:39.221Z,2.00
2022-10-09T04:39:07.409Z,2.10
2022-10-09T04:41:38.265Z,2.13
2022-10-09T04:44:07.622Z,1.93
2022-10-09T04:46:35.368Z,1.77
2022-10-09T04:49:02.898Z,1.30
2022-10-09T04:51:30.844Z,1.83
2022-10-09T04:54:00.626Z,2.13
2022-10-09T04:56:28.617Z,1.60
2022-10-09T04:58:56.289Z,2.07
2022-10-09T05:01:26.921Z,1.40
2022-10-09T05:03:54.861Z,1.77
2022-10-09T05:06:24.271Z,2.00
2022-10-09T05:08:52.557Z,2.17
2022-10-09T05:11:22.795Z,2.10
2022-10-09T05:13:52.610Z,1.50
2022-10-09T05:16:22.357Z,2.33
2022-10-09T05:18:53.515Z,2.00
2022-10-09T05:21:22.252Z,2.33
2022-10-09T05:23:50.584Z,3.60
2022-10-09T05:26:20.465Z,2.10
2022-10-09T05:28:48.662Z,2.03
2022-10-09T05:31:20.169Z,1.80
2022-10-09T05:33:48.019Z,2.00
2022-10-09T05:36:17.873Z,1.70
2022-10-09T05:38:45.712Z,1.73
2022-10-09T05:41:15.782Z,1.47
2022-10-09T05:43:45.479Z,1.80
2022-10-09T05:46:15.366Z,2.30
2022-10-09T05:48:45.309Z,1.90
2022-10-09T05:51:14.835Z,1.83
2022-10-09T05:53:44.926Z,1.83
2022-10-09T05:56:14.841Z,1.53
2022-10-09T05:58:43.489Z,1.70
2022-10-09T06:01:11.616Z,2.20
2022-10-09T06:03:39.510Z,2.63
2022-10-09T06:06:09.659Z,2.37
2022-10-09T06:08:38.655Z,1.90
2022-10-09T06:11:12.588Z,2.30
2022-10-09T06:13:40.602Z,2.30
2022-10-09T06:16:08.391Z,2.03
2022-10-09T06:18:36.141Z,2.90
2022-10-09T06:21:05.176Z,1.73
2022-10-09T06:23:33.506Z,2.53
2022-10-09T06:26:02.950Z,1.80
2022-10-09T06:28:32.796Z,2.38
2022-10-09T06:31:03.904Z,3.20
2022-10-09T06:33:33.183Z,2.50
2022-10-09T06:36:09.745Z,2.43
2022-10-09T06:38:38.885Z,3.10
2022-10-09T06:41:09.299Z,2.60
2022-10-09T06:43:39.562Z,3.07
2022-10-09T06:46:09.303Z,2.33
2022-10-09T06:48:38.282Z,2.70
2022-10-09T06:51:08.315Z,3.00
2022-10-09T06:53:36.187Z,2.75
2022-10-09T06:56:04.345Z,3.00
2022-10-09T06:58:34.729Z,3.43
2022-10-09T07:01:09.553Z,3.37
2022-10-09T07:03:39.142Z,3.17
2022-10-09T07:06:08.639Z,4.07
2022-10-09T07:08:36.259Z,3.40
2022-10-09T07:11:10.388Z,3.50
2022-10-09T07:13:39.171Z,3.50
2022-10-09T07:16:08.692Z,3.57
2022-10-09T07:18:36.839Z,3.30
2022-10-09T07:21:05.703Z,3.97
2022-10-09T07:23:34.461Z,3.90
2022-10-09T07:26:03.297Z,3.47
2022-10-09T07:28:31.390Z,3.77
2022-10-09T07:30:59.025Z,3.70
2022-10-09T07:33:27.951Z,3.20
2022-10-09T07:35:56.067Z,4.20
2022-10-09T07:38:24.395Z,4.27
2022-10-09T07:40:52.241Z,4.47
2022-10-09T07:43:20.705Z,4.27
2022-10-09T07:45:48.872Z,5.50
2022-10-09T07:48:16.546Z,4.90
2022-10-09T07:50:45.804Z,4.53
2022-10-09T07:53:13.536Z,4.90
2022-10-09T07:55:46.309Z,6.30
2022-10-09T07:58:14.250Z,5.73
2022-10-09T08:00:42.126Z,5.97
2022-10-09T08:03:10.822Z,5.40
2022-10-09T08:05:38.523Z,5.43
2022-10-09T08:08:07.474Z,5.60
2022-10-09T08:10:35.156Z,5.50
2022-10-09T08:13:02.850Z,5.53
2022-10-09T08:15:30.674Z,6.43
2022-10-09T08:17:58.254Z,6.30
2022-10-09T08:20:25.964Z,5.40
2022-10-09T08:22:53.597Z,5.87
2022-10-09T08:25:22.747Z,6.00
2022-10-09T08:27:53.247Z,5.47
2022-10-09T08:30:21.208Z,5.23
2022-10-09T08:32:49.220Z,6.30
2022-10-09T08:35:16.961Z,6.03
2022-10-09T08:37:44.586Z,6.30
2022-10-09T08:40:19.492Z,6.50
2022-10-09T08:42:54.162Z,6.43
2022-10-09T08:45:21.872Z,6.47
2022-10-09T08:47:56.434Z,6.22
2022-10-09T08:50:28.590Z,5.90
2022-10-09T08:53:03.265Z,5.47
2022-10-09T08:55:34.371Z,5.30
2022-10-09T08:58:05.242Z,6.33
2022-10-09T09:00:38.183Z,6.00
2022-10-09T09:03:31.220Z,5.87
2022-10-09T09:06:07.234Z,4.83
2022-10-09T09:08:46.018Z,5.10
2022-10-09T09:11:23.933Z,5.23
2022-10-09T09:14:03.377Z,4.70
2022-10-09T09:16:42.125Z,4.80
2022-10-09T09:19:33.337Z,5.10
2022-10-09T09:22:01.195Z,3.93
2022-10-09T09:24:41.582Z,4.80
2022-10-09T09:27:14.028Z,4.50
2022-10-09T09:29:47.870Z,5.20
2022-10-09T09:32:21.370Z,4.00
2022-10-09T09:34:49.151Z,3.90
2022-10-09T09:37:17.610Z,3.50
2022-10-09T09:42:33.109Z,4.20
2022-10-09T09:45:07.204Z,4.17
2022-10-09T09:47:37.025Z,4.47
2022-10-09T09:50:06.238Z,3.90
2022-10-09T09:52:38.440Z,3.10
2022-10-09T09:55:06.881Z,3.50
2022-10-09T09:57:37.756Z,3.30
2022-10-09T10:00:22.006Z,2.80
2022-10-09T10:02:50.875Z,2.87
2022-10-09T10:05:23.413Z,3.60
2022-10-09T10:07:51.623Z,2.40
2022-10-09T10:10:25.353Z,2.13
2022-10-09T10:12:58.536Z,2.73
2022-10-09T10:15:29.196Z,3.10
2022-10-09T10:18:00.669Z,2.90
2022-10-09T10:20:29.338Z,2.53
2022-10-09T10:22:58.857Z,2.77
2022-10-09T10:25:32.693Z,2.20
2022-10-09T10:28:06.439Z,2.22
2022-10-09T10:30:37.398Z,1.87
2022-10-09T10:33:13.958Z,2.00
2022-10-09T10:35:44.131Z,2.33
2022-10-09T10:38:17.883Z,1.20
2022-10-09T10:40:50.262Z,2.37
2022-10-09T10:43:30.210Z,2.30
2022-10-09T10:46:05.553Z,2.40
2022-10-09T10:48:36.930Z,2.43
2022-10-09T10:51:18.673Z,2.10
2022-10-09T10:54:00.651Z,2.10
2022-10-09T10:56:33.189Z,1.80
2022-10-09T10:59:17.468Z,1.77
2022-10-09T11:01:54.949Z,2.33
2022-10-09T11:04:37.832Z,2.33
2022-10-09T11:07:14.181Z,1.80
2022-10-09T11:09:52.001Z,2.00
2022-10-09T11:12:47.181Z,1.97
2022-10-09T11:15:23.733Z,1.73
2022-10-09T11:18:00.549Z,2.03
2022-10-09T11:20:53.046Z,2.17
2022-10-09T11:23:33.673Z,1.70
2022-10-09T11:26:14.149Z,2.17
2022-10-09T11:28:50.097Z,2.03
2022-10-09T11:31:22.213Z,2.03
2022-10-09T11:33:53.467Z,3.83
2022-10-09T11:36:28.552Z,2.73
2022-10-09T11:39:00.363Z,1.60
2022-10-09T11:41:29.990Z,1.73
2022-10-09T11:44:11.497Z,1.50
2022-10-09T11:46:45.228Z,1.53
2022-10-09T11:49:22.551Z,1.53
2022-10-09T11:51:57.007Z,1.83
2022-10-09T11:54:27.359Z,1.70
2022-10-09T11:56:57.119Z,2.00
2022-10-09T11:59:29.835Z,2.00
2022-10-09T12:01:59.096Z,1.80
2022-10-09T12:04:53.566Z,2.27
2022-10-09T12:07:28.951Z,1.60
2022-10-09T12:10:00.578Z,2.03
2022-10-09T12:12:29.198Z,1.60
2022-10-09T12:14:56.864Z,1.60
2022-10-09T12:17:35.058Z,2.87
2022-10-09T12:20:08.786Z,2.33
2022-10-09T12:22:41.504Z,1.50
2022-10-09T12:25:18.202Z,1.57
2022-10-09T12:27:47.113Z,1.53
2022-10-09T12:30:21.357Z,1.43
2022-10-09T12:32:54.879Z,1.40
2022-10-09T12:35:27.226Z,1.80
2022-10-09T12:37:54.825Z,1.60
2022-10-09T12:40:25.261Z,1.50
2022-10-09T12:42:54.659Z,1.63
2022-10-09T12:45:25.410Z,1.90
2022-10-09T12:47:54.481Z,1.97
2022-10-09T12:50:28.280Z,1.53
2022-10-09T12:52:58.466Z,1.67
2022-10-09T12:55:29.323Z,1.65
2022-10-09T12:58:00.801Z,1.37
2022-10-09T13:00:28.464Z,1.83
2022-10-09T13:02:58.789Z,2.17
2022-10-09T13:05:38.581Z,2.23
2022-10-09T13:08:07.022Z,1.40
2022-10-09T13:10:34.749Z,1.47
2022-10-09T13:13:02.517Z,1.50
2022-10-09T13:15:34.168Z,1.30
2022-10-09T13:18:01.997Z,1.40
2022-10-09T13:20:32.222Z,1.27
2022-10-09T13:23:04.309Z,1.00
2022-10-09T13:25:37.850Z,1.57
2022-10-09T13:28:06.113Z,1.77
2022-10-09T13:30:34.262Z,1.30
2022-10-09T13:33:01.888Z,1.40
2022-10-09T13:35:29.925Z,1.30
2022-10-09T13:37:57.452Z,1.23
2022-10-09T13:40:26.723Z,1.57
2022-10-09T13:42:56.487Z,1.27
2022-10-09T13:45:24.379Z,1.50
2022-10-09T13:47:52.565Z,1.60
2022-10-09T13:50:20.840Z,1.60
2022-10-09T13:52:48.464Z,1.30
2022-10-09T13:55:16.130Z,1.63
2022-10-09T13:57:45.294Z,1.27
2022-10-09T14:00:14.311Z,1.23
2022-10-09T14:02:41.975Z,1.33
2022-10-09T14:05:09.938Z,1.57
2022-10-09T14:07:37.638Z,1.60
2022-10-09T14:10:06.087Z,1.40
2022-10-09T14:12:33.878Z,1.40
2022-10-09T14:15:02.956Z,1.30
2022-10-09T14:17:30.520Z,1.40
2022-10-09T14:19:58.265Z,1.30
2022-10-09T14:22:25.928Z,0.90
2022-10-09T14:24:53.493Z,1.10
2022-10-09T14:27:21.124Z,1.37
2022-10-09T14:29:49.287Z,1.20
2022-10-09T14:32:20.088Z,1.20
2022-10-09T14:34:49.403Z,1.40
2022-10-09T14:37:29.665Z,1.17
2022-10-09T14:40:05.251Z,1.30
2022-10-09T14:42:32.953Z,1.40
2022-10-09T14:45:00.543Z,1.40
2022-10-09T14:47:29.511Z,1.90
2022-10-09T14:49:57.169Z,1.10
2022-10-09T14:52:24.892Z,1.40
2022-10-09T14:54:52.557Z,1.60
2022-10-09T14:57:22.441Z,1.53
2022-10-09T14:59:52.428Z,1.77
2022-10-09T15:02:22.450Z,1.43
2022-10-09T15:04:51.559Z,2.40
2022-10-09T15:07:19.204Z,1.20
2022-10-09T15:09:46.850Z,1.27
2022-10-09T15:12:17.483Z,1.43
2022-10-09T15:14:45.173Z,1.20
2022-10-09T15:17:12.881Z,1.43
2022-10-09T15:19:40.613Z,1.50
2022-10-09T15:22:09.592Z,1.20
2022-10-09T15:24:37.136Z,1.37
2022-10-09T15:27:05.775Z,1.33
2022-10-09T15:29:34.345Z,1.07
2022-10-09T15:32:03.781Z,1.60
2022-10-09T15:34:31.542Z,1.30
2022-10-09T15:36:59.229Z,1.27
2022-10-09T15:39:29.152Z,1.70
2022-10-09T15:41:57.147Z,1.23
2022-10-09T15:44:25.053Z,1.43
2022-10-09T15:46:53.258Z,1.20
2022-10-09T15:49:21.081Z,1.50
2022-10-09T15:51:48.894Z,1.27
2022-10-09T15:54:16.677Z,1.47
2022-10-09T15:56:45.667Z,1.47
2022-10-09T15:59:16.787Z,2.33
2022-10-09T16:01:44.570Z,1.43
2022-10-09T16:04:12.683Z,1.70
2022-10-09T16:06:40.255Z,2.00
2022-10-09T16:09:08.381Z,1.93
2022-10-09T16:11:36.162Z,2.00
2022-10-09T16:14:05.230Z,1.60
2022-10-09T16:16:32.889Z,1.73
2022-10-09T16:19:03.028Z,1.50
2022-10-09T16:21:31.251Z,2.10
2022-10-09T16:23:59.878Z,1.80
2022-10-09T16:26:29.178Z,2.27
2022-10-09T16:28:56.885Z,2.53
2022-10-09T16:31:28.514Z,1.73
2022-10-09T16:33:57.406Z,2.20
2022-10-09T16:36:25.227Z,2.03
2022-10-09T16:38:52.858Z,1.90
2022-10-09T16:41:22.506Z,2.37
2022-10-09T16:43:52.069Z,1.67
2022-10-09T16:46:22.060Z,2.30
2022-10-09T16:48:52.528Z,2.00
2022-10-09T16:51:23.834Z,4.77
2022-10-09T16:53:52.090Z,5.00
2022-10-09T16:56:24.055Z,2.10
2022-10-09T16:58:55.689Z,2.70
2022-10-09T17:01:23.557Z,2.37
2022-10-09T17:03:55.282Z,2.37
2022-10-09T17:06:24.068Z,1.83
2022-10-09T17:08:52.332Z,2.40
2022-10-09T17:11:20.089Z,2.47
2022-10-09T17:13:49.088Z,4.13
2022-10-09T17:16:21.973Z,4.67
2022-10-09T17:18:50.243Z,3.60
2022-10-09T17:21:19.640Z,4.47
2022-10-09T17:23:48.101Z,3.80
2022-10-09T17:26:17.964Z,3.10
2022-10-09T17:28:46.927Z,3.57
2022-10-09T17:31:17.187Z,3.87
2022-10-09T17:33:48.101Z,3.03
2022-10-09T17:36:17.453Z,3.10
2022-10-09T17:38:47.003Z,3.53
2022-10-09T17:41:16.686Z,3.00
2022-10-09T17:43:44.688Z,3.63
2022-10-09T17:46:14.762Z,3.00
2022-10-09T17:48:44.864Z,3.10
2022-10-09T17:51:16.878Z,2.60
2022-10-09T17:53:46.301Z,3.10
2022-10-09T17:56:14.336Z,2.97
2022-10-09T17:58:42.669Z,2.60
2022-10-09T18:01:11.930Z,3.30
2022-10-09T18:03:39.560Z,3.07
2022-10-09T18:06:09.018Z,3.50
2022-10-09T18:08:37.438Z,3.20
2022-10-09T18:11:09.853Z,2.60
2022-10-09T18:13:39.037Z,2.57
2022-10-09T18:16:08.026Z,2.90
2022-10-09T18:18:36.410Z,2.30
2022-10-09T18:21:05.856Z,1.63
2022-10-09T18:23:34.335Z,2.57
2022-10-09T18:26:02.244Z,2.40
2022-10-09T18:28:33.537Z,2.80
2022-10-09T18:31:01.241Z,2.93
2022-10-09T18:33:28.957Z,2.23
2022-10-09T18:35:56.698Z,2.80
2022-10-09T18:38:24.465Z,2.83
2022-10-09T18:40:52.171Z,2.30
2022-10-09T18:43:19.965Z,4.20
2022-10-09T18:45:49.164Z,2.40
2022-10-09T18:48:17.960Z,2.20
2022-10-09T18:50:45.794Z,2.30
2022-10-09T18:53:14.025Z,3.23
2022-10-09T18:55:44.322Z,2.43
2022-10-09T18:58:14.879Z,2.22
2022-10-09T19:00:43.331Z,2.20
2022-10-09T19:03:13.503Z,1.90
2022-10-09T19:05:42.190Z,2.20
2022-10-09T19:08:09.962Z,2.13
2022-10-09T19:10:37.706Z,1.80
2022-10-09T19:13:05.411Z,2.70
2022-10-09T19:15:33.146Z,1.73
2022-10-09T19:18:10.659Z,1.77
2022-10-09T19:20:41.092Z,2.70
2022-10-09T19:23:09.405Z,2.47
2022-10-09T19:25:37.147Z,2.20
2022-10-09T19:28:04.718Z,1.37
2022-10-09T19:30:32.489Z,1.77
2022-10-09T19:33:00.178Z,2.03
2022-10-09T19:35:27.821Z,2.00
2022-10-09T19:37:56.700Z,2.07
2022-10-09T19:40:24.424Z,1.97
2022-10-09T19:42:52.233Z,2.20
2022-10-09T19:45:22.529Z,2.40
2022-10-09T19:47:54.170Z,2.03
2022-10-09T19:50:22.082Z,2.17
2022-10-09T19:52:49.771Z,1.77
2022-10-09T19:55:19.205Z,2.13
2022-10-09T19:57:47.823Z,2.30
2022-10-09T20:00:16.790Z,2.20
2022-10-09T20:02:44.565Z,2.20
2022-10-09T20:05:12.332Z,2.30
2022-10-09T20:07:40.125Z,2.27
2022-10-09T20:10:08.397Z,2.07
2022-10-09T20:12:37.425Z,2.30
2022-10-09T20:15:05.740Z,2.60
2022-10-09T20:17:33.823Z,2.20
2022-10-09T20:20:04.125Z,2.03
2022-10-09T20:22:31.809Z,2.37
2022-10-09T20:24:59.576Z,1.80
2022-10-09T20:27:27.194Z,1.83
2022-10-09T20:29:56.534Z,1.73
2022-10-09T20:32:25.415Z,2.08
2022-10-09T20:34:53.823Z,1.80
2022-10-09T20:37:21.700Z,2.10
2022-10-09T20:39:49.535Z,2.33
2022-10-09T20:42:17.391Z,2.50
2022-10-09T20:44:45.314Z,2.20
2022-10-09T20:47:14.925Z,1.90
2022-10-09T20:49:43.708Z,1.90
2022-10-09T20:52:11.612Z,1.90
2022-10-09T20:54:39.436Z,2.00
2022-10-09T20:57:07.027Z,2.27
2022-10-09T20:59:34.857Z,1.93
2022-10-09T21:02:02.606Z,2.77
2022-10-09T21:04:32.142Z,1.90
2022-10-09T21:06:59.962Z,2.07
2022-10-09T21:09:32.401Z,1.90
2022-10-09T21:12:02.254Z,2.10
2022-10-09T21:14:29.983Z,2.40
2022-10-09T21:16:57.576Z,2.30
2022-10-09T21:19:26.258Z,2.00
2022-10-09T21:21:55.539Z,2.27
2022-10-09T21:24:23.542Z,2.00
2022-10-09T21:26:51.272Z,1.85
2022-10-09T21:29:18.888Z,2.10
2022-10-09T21:31:46.806Z,2.10
2022-10-09T21:34:14.648Z,2.40
2022-10-09T21:39:38.760Z,2.60
2022-10-09T21:42:07.223Z,2.50
2022-10-09T21:44:36.270Z,2.37
2022-10-09T21:47:04.590Z,2.37
2022-10-09T21:49:32.375Z,2.03
2022-10-09T21:52:00.076Z,2.50
2022-10-09T21:54:27.821Z,2.20
2022-10-09T21:56:56.922Z,2.10
2022-10-09T21:59:24.606Z,1.80
2022-10-09T22:01:52.369Z,2.60
2022-10-09T22:04:20.070Z,1.83
2022-10-09T22:06:48.085Z,2.00
2022-10-09T22:09:16.147Z,2.03
2022-10-09T22:11:44.538Z,1.67
2022-10-09T22:14:13.694Z,1.92
2022-10-09T22:16:47.379Z,2.47
2022-10-09T22:19:15.231Z,2.40
2022-10-09T22:21:43.124Z,2.45
2022-10-09T22:24:11.029Z,2.03
2022-10-09T22:26:38.597Z,2.13
2022-10-09T22:29:06.220Z,2.00
2022-10-09T22:31:35.638Z,1.70
2022-10-09T22:34:03.893Z,2.60
2022-10-09T22:36:33.747Z,1.57
2022-10-09T22:39:04.725Z,2.33
2022-10-09T22:41:32.919Z,1.90
2022-10-09T22:44:01.941Z,1.90
2022-10-09T22:46:33.315Z,2.30
2022-10-09T22:49:02.357Z,1.70
2022-10-09T22:51:30.689Z,1.87
2022-10-09T22:54:00.447Z,2.13
2022-10-09T22:56:31.407Z,2.03
2022-10-09T22:58:59.149Z,1.80
2022-10-09T23:01:30.320Z,1.83
2022-10-09T23:03:58.212Z,2.13
2022-10-09T23:06:27.177Z,1.43
2022-10-09T23:08:55.240Z,2.40
2022-10-09T23:11:23.687Z,1.90
2022-10-09T23:13:54.687Z,2.00
2022-10-09T23:16:22.863Z,2.53
2022-10-09T23:18:50.847Z,2.03
2022-10-09T23:21:21.988Z,2.35
2022-10-09T23:23:52.168Z,1.90
2022-10-09T23:26:22.317Z,2.53
2022-10-09T23:28:51.428Z,2.10
2022-10-09T23:31:19.507Z,2.30
2022-10-09T23:33:47.338Z,2.67
2022-10-09T23:36:16.828Z,2.13
2022-10-09T23:38:44.976Z,3.00
2022-10-09T23:41:15.861Z,2.90
2022-10-09T23:43:44.938Z,2.20
2022-10-09T23:46:14.676Z,2.50
2022-10-09T23:48:43.025Z,1.80
2022-10-09T23:51:10.812Z,2.03
2022-10-09T23:53:38.580Z,3.13
2022-10-09T23:56:07.997Z,1.90
2022-10-09T23:58:37.127Z,2.30
